createdAt,value
2022-12-19T00:00:36.692Z,100723.31
2022-12-19T00:03:24.678Z,100719.02
2022-12-19T00:05:52.819Z,100712.11
2022-12-19T00:08:20.734Z,100700.13
2022-12-19T00:11:00.893Z,100695.95
2022-12-19T00:13:31.199Z,100693.09
2022-12-19T00:16:09.306Z,100691.80
2022-12-19T00:18:39.818Z,100693.08
2022-12-19T00:21:09.388Z,100677.61
2022-12-19T00:23:37.744Z,100676.80
2022-12-19T00:26:11.660Z,100680.29
2022-12-19T00:28:41.332Z,100678.91
2022-12-19T00:31:10.693Z,100681.52
2022-12-19T00:33:42.587Z,100683.02
2022-12-19T00:36:16.855Z,100682.96
2022-12-19T00:38:52.326Z,100679.23
2022-12-19T00:41:23.396Z,100672.52
2022-12-19T00:44:00.850Z,100674.98
2022-12-19T00:46:31.030Z,100673.38
2022-12-19T00:48:59.798Z,100670.52
2022-12-19T00:51:30.279Z,100666.33
2022-12-19T00:53:58.852Z,100667.92
2022-12-19T00:56:30.198Z,100675.58
2022-12-19T00:58:58.865Z,100672.16
2022-12-19T01:01:34.776Z,100667.67
2022-12-19T01:04:27.712Z,100660.88
2022-12-19T01:06:52.883Z,100665.85
2022-12-19T01:09:22.715Z,100666.65
2022-12-19T01:12:08.991Z,100657.81
2022-12-19T01:14:36.944Z,100648.83
2022-12-19T01:17:04.849Z,100640.02
2022-12-19T01:19:32.787Z,100636.70
2022-12-19T01:22:00.750Z,100635.74
2022-12-19T01:24:29.084Z,100633.20
2022-12-19T01:26:56.992Z,100631.71
2022-12-19T01:29:25.004Z,100623.02
2022-12-19T01:31:52.909Z,100612.89
2022-12-19T01:34:20.812Z,100607.80
2022-12-19T01:36:48.722Z,100610.92
2022-12-19T01:39:16.611Z,100604.91
2022-12-19T01:41:44.460Z,100605.34
2022-12-19T01:44:12.390Z,100601.23
2022-12-19T01:46:45.459Z,100598.84
2022-12-19T01:49:34.941Z,100603.17
2022-12-19T01:52:07.778Z,100599.21
2022-12-19T01:54:40.274Z,100598.33
2022-12-19T01:57:13.792Z,100582.20
2022-12-19T01:59:50.316Z,100582.32
2022-12-19T02:02:30.425Z,100580.17
2022-12-19T02:04:58.816Z,100571.58
2022-12-19T02:07:27.295Z,100562.15
2022-12-19T02:09:57.734Z,100557.00
2022-12-19T02:12:35.827Z,100553.59
2022-12-19T02:15:06.379Z,100551.89
2022-12-19T02:17:52.632Z,100544.88
2022-12-19T02:21:06.273Z,100544.33
2022-12-19T02:23:58.524Z,100541.92
2022-12-19T02:26:32.975Z,100533.80
2022-12-19T02:29:09.717Z,100532.04
2022-12-19T02:31:49.021Z,100533.89
2022-12-19T02:34:42.734Z,100532.98
2022-12-19T02:37:20.815Z,100524.11
2022-12-19T02:40:02.872Z,100521.60
2022-12-19T02:42:35.245Z,100524.13
2022-12-19T02:45:08.077Z,100517.61
2022-12-19T02:47:38.466Z,100514.79
2022-12-19T02:50:08.154Z,100513.63
2022-12-19T02:52:36.116Z,100516.27
2022-12-19T02:55:07.979Z,100515.84
2022-12-19T02:57:51.280Z,100512.64
2022-12-19T03:00:22.605Z,100509.95
2022-12-19T03:03:01.217Z,100511.17
2022-12-19T03:05:35.936Z,100508.41
2022-12-19T03:08:28.813Z,100498.73
2022-12-19T03:11:06.418Z,100500.83
2022-12-19T03:13:58.610Z,100489.41
2022-12-19T03:16:27.087Z,100488.71
2022-12-19T03:18:56.621Z,100496.16
2022-12-19T03:21:29.621Z,100486.13
2022-12-19T03:23:58.856Z,100480.92
2022-12-19T03:26:31.240Z,100470.53
2022-12-19T03:29:10.995Z,100470.52
2022-12-19T03:31:39.840Z,100466.17
2022-12-19T03:34:18.350Z,100467.04
2022-12-19T03:36:53.496Z,100466.67
2022-12-19T03:39:23.555Z,100466.50
2022-12-19T03:42:11.146Z,100456.43
2022-12-19T03:44:42.390Z,100461.59
2022-12-19T03:47:21.249Z,100454.98
2022-12-19T03:49:50.079Z,100451.16
2022-12-19T03:52:39.874Z,100453.73
2022-12-19T03:55:26.686Z,100458.39
2022-12-19T03:58:10.543Z,100463.04
2022-12-19T04:00:43.665Z,100470.11
2022-12-19T04:03:12.143Z,100462.33
2022-12-19T04:05:42.065Z,100467.33
2022-12-19T04:08:12.146Z,100459.35
2022-12-19T04:10:47.677Z,100457.80
2022-12-19T04:13:21.541Z,100452.45
2022-12-19T04:16:19.016Z,100445.55
2022-12-19T04:18:57.195Z,100439.86
2022-12-19T04:21:36.860Z,100430.35
2022-12-19T04:24:11.687Z,100423.81
2022-12-19T04:26:41.384Z,100410.48
2022-12-19T04:29:13.893Z,100409.96
2022-12-19T04:31:43.502Z,100402.36
2022-12-19T04:34:11.352Z,100402.35
2022-12-19T04:36:39.298Z,100393.02
2022-12-19T04:39:07.295Z,100392.48
2022-12-19T04:41:35.172Z,100401.45
2022-12-19T04:44:03.150Z,100398.16
2022-12-19T04:46:31.154Z,100395.72
2022-12-19T04:48:59.089Z,100401.44
2022-12-19T04:51:26.961Z,100402.13
2022-12-19T04:53:54.909Z,100406.10
2022-12-19T04:56:23.170Z,100397.10
2022-12-19T04:58:59.382Z,100397.61
2022-12-19T05:01:28.050Z,100401.59
2022-12-19T05:04:01.278Z,100387.42
2022-12-19T05:06:32.108Z,100383.77
2022-12-19T05:09:00.044Z,100386.76
2022-12-19T05:11:27.962Z,100376.70
2022-12-19T05:13:55.931Z,100388.83
2022-12-19T05:16:23.861Z,100375.84
2022-12-19T05:18:53.233Z,100374.44
2022-12-19T05:21:23.023Z,100385.33
2022-12-19T05:23:51.469Z,100388.42
2022-12-19T05:26:19.545Z,100399.48
2022-12-19T05:28:47.532Z,100396.71
2022-12-19T05:31:19.874Z,100395.67
2022-12-19T05:33:48.399Z,100389.44
2022-12-19T05:36:17.963Z,100396.00
2022-12-19T05:38:45.919Z,100400.19
2022-12-19T05:41:17.105Z,100404.85
2022-12-19T05:43:49.111Z,100407.30
2022-12-19T05:46:17.647Z,100409.07
2022-12-19T05:48:45.917Z,100406.45
2022-12-19T05:51:14.463Z,100403.16
2022-12-19T05:53:42.600Z,100405.92
2022-12-19T05:56:11.760Z,100409.54
2022-12-19T05:58:41.437Z,100407.11
2022-12-19T06:01:13.934Z,100408.98
2022-12-19T06:03:42.405Z,100409.13
2022-12-19T06:06:13.303Z,100413.44
2022-12-19T06:08:42.046Z,100416.70
2022-12-19T06:11:11.389Z,100418.25
2022-12-19T06:13:40.343Z,100418.94
2022-12-19T06:16:12.964Z,100414.08
2022-12-19T06:18:44.769Z,100424.27
2022-12-19T06:21:16.316Z,100432.05
2022-12-19T06:23:45.149Z,100428.56
2022-12-19T06:26:19.566Z,100431.50
2022-12-19T06:28:50.271Z,100425.08
2022-12-19T06:31:19.842Z,100424.38
2022-12-19T06:33:48.309Z,100427.41
2022-12-19T06:36:20.541Z,100424.11
2022-12-19T06:38:49.361Z,100423.52
2022-12-19T06:41:36.603Z,100432.36
2022-12-19T06:44:07.477Z,100424.80
2022-12-19T06:46:37.323Z,100408.27
2022-12-19T06:49:05.792Z,100403.07
2022-12-19T06:51:34.942Z,100403.70
2022-12-19T06:54:03.323Z,100399.49
2022-12-19T06:56:39.035Z,100390.48
2022-12-19T06:59:07.800Z,100398.41
2022-12-19T07:02:05.655Z,100400.64
2022-12-19T07:04:41.851Z,100399.27
2022-12-19T07:07:09.947Z,100394.58
2022-12-19T07:09:37.941Z,100385.61
2022-12-19T07:12:06.052Z,100375.27
2022-12-19T07:14:34.076Z,100363.69
2022-12-19T07:17:03.284Z,100362.50
2022-12-19T07:19:32.773Z,100363.55
2022-12-19T07:22:03.056Z,100376.01
2022-12-19T07:24:31.143Z,100366.35
2022-12-19T07:26:59.163Z,100366.89
2022-12-19T07:29:27.209Z,100358.45
2022-12-19T07:31:55.229Z,100356.55
2022-12-19T07:34:23.260Z,100355.55
2022-12-19T07:36:51.242Z,100346.77
2022-12-19T07:39:19.137Z,100344.74
2022-12-19T07:41:47.015Z,100350.34
2022-12-19T07:44:16.492Z,100353.84
2022-12-19T07:46:45.115Z,100354.61
2022-12-19T07:49:14.244Z,100358.31
2022-12-19T07:51:44.923Z,100365.48
2022-12-19T07:54:13.185Z,100367.45
2022-12-19T07:56:41.275Z,100368.20
2022-12-19T07:59:09.205Z,100370.00
2022-12-19T08:01:37.216Z,100364.69
2022-12-19T08:04:05.381Z,100361.13
2022-12-19T08:06:39.152Z,100355.78
2022-12-19T08:09:09.301Z,100355.31
2022-12-19T08:11:37.243Z,100359.70
2022-12-19T08:14:05.181Z,100357.80
2022-12-19T08:16:43.903Z,100363.54
2022-12-19T08:19:17.549Z,100361.50
2022-12-19T08:21:45.923Z,100364.79
2022-12-19T08:24:13.833Z,100362.54
2022-12-19T08:26:47.438Z,100362.02
2022-12-19T08:29:15.657Z,100370.36
2022-12-19T08:31:43.615Z,100365.17
2022-12-19T08:34:11.536Z,100353.55
2022-12-19T08:36:39.576Z,100359.96
2022-12-19T08:39:07.636Z,100358.91
2022-12-19T08:41:35.727Z,100369.15
2022-12-19T08:44:03.868Z,100366.39
2022-12-19T08:46:31.922Z,100359.80
2022-12-19T08:49:01.060Z,100359.45
2022-12-19T08:51:29.186Z,100365.20
2022-12-19T08:53:57.126Z,100370.41
2022-12-19T08:56:25.009Z,100370.76
2022-12-19T08:58:53.024Z,100371.45
2022-12-19T09:01:23.917Z,100372.31
2022-12-19T09:05:22.976Z,100369.02
2022-12-19T09:06:40.183Z,100361.71
2022-12-19T09:09:08.193Z,100359.79
2022-12-19T09:11:36.306Z,100354.92
2022-12-19T09:14:15.727Z,100352.84
2022-12-19T09:16:49.549Z,100350.41
2022-12-19T09:19:18.109Z,100350.59
2022-12-19T09:21:46.078Z,100341.20
2022-12-19T09:24:14.639Z,100333.90
2022-12-19T09:26:44.092Z,100333.88
2022-12-19T09:29:19.634Z,100332.12
2022-12-19T09:31:55.465Z,100329.50
2022-12-19T09:34:36.854Z,100321.99
2022-12-19T09:37:08.162Z,100316.58
2022-12-19T09:39:36.483Z,100321.09
2022-12-19T09:42:04.425Z,100324.03
2022-12-19T09:44:44.998Z,100313.09
2022-12-19T09:47:23.468Z,100315.86
2022-12-19T09:49:52.150Z,100312.04
2022-12-19T09:52:31.545Z,100315.35
2022-12-19T09:55:01.126Z,100314.70
2022-12-19T09:57:52.103Z,100304.14
2022-12-19T10:00:22.506Z,100307.09
2022-12-19T10:03:07.304Z,100304.49
2022-12-19T10:07:06.883Z,100303.29
2022-12-19T10:09:15.272Z,100291.10
2022-12-19T10:12:38.935Z,100285.37
2022-12-19T10:14:51.784Z,100287.80
2022-12-19T10:17:38.178Z,100290.02
2022-12-19T10:20:06.090Z,100286.63
2022-12-19T10:23:00.527Z,100289.86
2022-12-19T10:25:53.671Z,100292.43
2022-12-19T10:28:38.001Z,100285.20
2022-12-19T10:31:30.495Z,100279.55
2022-12-19T10:34:13.828Z,100271.48
2022-12-19T10:37:26.899Z,100265.55
2022-12-19T10:39:53.265Z,100255.92
2022-12-19T10:42:47.809Z,100252.40
2022-12-19T10:45:19.241Z,100235.16
2022-12-19T10:47:49.840Z,100224.23
2022-12-19T10:50:22.492Z,100219.95
2022-12-19T10:52:54.738Z,100216.58
2022-12-19T10:55:40.894Z,100209.55
2022-12-19T10:58:20.376Z,100196.09
2022-12-19T11:00:54.152Z,100201.71
2022-12-19T11:03:22.507Z,100199.51
2022-12-19T11:05:57.729Z,100190.01
2022-12-19T11:08:31.480Z,100180.31
2022-12-19T11:12:10.270Z,100172.77
2022-12-19T11:18:30.281Z,100159.48
2022-12-19T11:24:04.347Z,100158.33
2022-12-19T11:29:18.794Z,100157.29
2022-12-19T11:30:05.359Z,100176.05
2022-12-19T11:30:09.324Z,100168.57
2022-12-19T11:30:37.769Z,100183.66
2022-12-19T11:34:15.803Z,100200.13
2022-12-19T11:36:50.455Z,100196.85
2022-12-19T11:39:26.058Z,100201.54
2022-12-19T11:42:20.050Z,100205.35
2022-12-19T11:45:02.920Z,100205.31
2022-12-19T11:47:38.371Z,100205.80
2022-12-19T11:50:21.825Z,100196.05
2022-12-19T11:53:05.156Z,100192.38
2022-12-19T11:55:46.542Z,100185.39
2022-12-19T11:58:14.451Z,100186.73
2022-12-19T12:01:05.041Z,100181.65
2022-12-19T12:04:24.165Z,100174.98
2022-12-19T12:06:54.352Z,100172.67
2022-12-19T12:16:32.426Z,100171.83
2022-12-19T12:22:10.279Z,100162.27
2022-12-19T12:29:21.030Z,100173.44
2022-12-19T12:31:17.245Z,100180.95
2022-12-19T12:31:22.105Z,100162.50
2022-12-19T12:31:42.233Z,100149.65
2022-12-19T12:31:44.251Z,100156.84
2022-12-19T12:35:38.458Z,100143.84
2022-12-19T12:38:12.271Z,100129.65
2022-12-19T12:40:24.194Z,100131.75
2022-12-19T12:43:21.742Z,100135.94
2022-12-19T12:45:49.853Z,100143.60
2022-12-19T12:48:26.767Z,100142.90
2022-12-19T12:50:58.807Z,100138.39
2022-12-19T12:53:38.533Z,100134.91
2022-12-19T12:56:10.001Z,100118.42
2022-12-19T12:59:03.792Z,100128.98
2022-12-19T13:01:40.514Z,100130.20
2022-12-19T13:04:11.290Z,100130.21
2022-12-19T13:06:51.270Z,100126.08
2022-12-19T13:09:37.724Z,100122.96
2022-12-19T13:12:43.109Z,100133.45
2022-12-19T13:15:22.887Z,100139.04
2022-12-19T13:17:50.917Z,100131.07
2022-12-19T13:20:19.037Z,100124.66
2022-12-19T13:23:19.800Z,100121.73
2022-12-19T13:25:53.931Z,100118.12
2022-12-19T13:28:22.062Z,100116.41
2022-12-19T13:31:19.993Z,100109.67
2022-12-19T13:33:55.760Z,100106.76
2022-12-19T13:39:49.684Z,100111.80
2022-12-19T13:40:10.955Z,100105.59
2022-12-19T13:43:20.569Z,100096.40
2022-12-19T13:45:53.638Z,100092.25
2022-12-19T13:48:36.076Z,100083.77
2022-12-19T13:51:07.483Z,100085.34
2022-12-19T13:53:35.695Z,100083.09
2022-12-19T13:56:05.617Z,100080.87
2022-12-19T13:58:42.333Z,100089.71
2022-12-19T14:01:20.768Z,100079.68
2022-12-19T14:03:51.593Z,100093.57
2022-12-19T14:06:26.249Z,100092.21
2022-12-19T14:11:28.227Z,100091.52
2022-12-19T14:13:39.817Z,100099.32
2022-12-19T14:15:13.209Z,100096.02
2022-12-19T14:17:48.498Z,100099.15
2022-12-19T14:22:02.211Z,100100.36
2022-12-19T14:23:12.409Z,100106.44
2022-12-19T14:28:17.164Z,100107.82
2022-12-19T14:28:54.513Z,100109.03
2022-12-19T14:31:25.032Z,100106.96
2022-12-19T14:36:49.599Z,100102.27
2022-12-19T14:39:22.829Z,100103.13
2022-12-19T14:42:31.585Z,100108.50
2022-12-19T14:52:35.084Z,100111.45
2022-12-19T14:54:05.643Z,100108.68
2022-12-19T14:54:20.820Z,100094.98
2022-12-19T14:57:25.619Z,100096.75
2022-12-19T15:01:08.879Z,100097.62
2022-12-19T15:03:25.831Z,100086.00
2022-12-19T15:07:05.445Z,100081.84
2022-12-19T15:10:58.685Z,100075.95
2022-12-19T15:12:39.687Z,100077.34
2022-12-19T15:15:36.994Z,100074.72
2022-12-19T15:18:19.155Z,100071.77
2022-12-19T15:20:47.454Z,100071.06
2022-12-19T15:23:21.718Z,100059.45
2022-12-19T15:26:08.379Z,100051.63
2022-12-19T15:28:43.910Z,100064.29
2022-12-19T15:31:38.700Z,100058.56
2022-12-19T15:34:37.200Z,100058.91
2022-12-19T15:37:06.164Z,100059.78
2022-12-19T15:39:34.050Z,100054.91
2022-12-19T15:42:02.428Z,100042.95
2022-12-19T15:44:44.534Z,100031.49
2022-12-19T15:47:25.786Z,100023.18
2022-12-19T15:49:53.734Z,100023.02
2022-12-19T15:52:22.324Z,100023.20
2022-12-19T15:54:51.004Z,100029.27
2022-12-19T15:57:36.519Z,100024.05
2022-12-19T16:00:16.749Z,100021.80
2022-12-19T16:05:33.250Z,100033.92
2022-12-19T16:08:01.523Z,100030.45
2022-12-19T16:10:29.900Z,100023.67
2022-12-19T16:12:58.280Z,100016.03
2022-12-19T16:15:32.535Z,100022.96
2022-12-19T16:18:03.167Z,100021.75
2022-12-19T16:20:36.036Z,100011.86
2022-12-19T16:23:04.112Z,100003.19
2022-12-19T16:25:40.778Z,100004.41
2022-12-19T16:28:17.205Z,99999.02
2022-12-19T16:30:45.295Z,100008.59
2022-12-19T16:33:33.442Z,100011.04
2022-12-19T16:36:04.625Z,100006.02
2022-12-19T16:38:33.381Z,99999.77
2022-12-19T16:41:04.505Z,100004.45
2022-12-19T16:43:37.446Z,100000.98
2022-12-19T16:46:07.377Z,99997.15
2022-12-19T16:48:38.272Z,99997.33
2022-12-19T16:51:17.765Z,99999.75
2022-12-19T16:53:46.409Z,99989.69
2022-12-19T16:56:31.363Z,99979.63
2022-12-19T16:59:02.405Z,99981.89
2022-12-19T17:01:30.508Z,99981.19
2022-12-19T17:03:58.452Z,99983.09
2022-12-19T17:06:26.632Z,99971.28
2022-12-19T17:08:54.586Z,99974.05
2022-12-19T17:11:26.276Z,99975.26
2022-12-19T17:14:02.994Z,99968.85
2022-12-19T17:16:31.559Z,99958.27
2022-12-19T17:18:59.772Z,99962.42
2022-12-19T17:21:27.689Z,99961.73
2022-12-19T17:23:55.666Z,99957.36
2022-12-19T17:26:23.627Z,99962.20
2022-12-19T17:28:51.895Z,99968.77
2022-12-19T17:31:26.788Z,99964.59
2022-12-19T17:33:57.858Z,99964.75
2022-12-19T17:36:34.759Z,99960.23
2022-12-19T17:39:33.578Z,99963.86
2022-12-19T17:42:13.744Z,99960.58
2022-12-19T17:44:41.785Z,99949.98
2022-12-19T17:47:17.215Z,99944.27
2022-12-19T17:49:45.972Z,99945.67
2022-12-19T17:52:18.749Z,99941.81
2022-12-19T17:54:47.107Z,99938.34
2022-12-19T17:57:16.482Z,99936.44
2022-12-19T17:59:46.429Z,99933.80
2022-12-19T18:02:26.289Z,99917.80
2022-12-19T18:04:55.017Z,99917.93
2022-12-19T18:07:23.084Z,99916.33
2022-12-19T18:09:50.992Z,99919.26
2022-12-19T18:12:19.351Z,99919.60
2022-12-19T18:14:47.266Z,99922.71
2022-12-19T18:17:27.681Z,99933.29
2022-12-19T18:19:55.732Z,99938.34
2022-12-19T18:22:23.644Z,99937.29
2022-12-19T18:24:51.981Z,99930.85
2022-12-19T18:27:19.955Z,99919.52
2022-12-19T18:29:47.907Z,99908.23
2022-12-19T18:32:20.428Z,99912.21
2022-12-19T18:34:48.356Z,99906.50
2022-12-19T18:37:16.810Z,99905.11
2022-12-19T18:39:45.503Z,99901.13
2022-12-19T18:42:21.530Z,99896.59
2022-12-19T18:44:49.613Z,99895.72
2022-12-19T18:47:25.543Z,99886.70
2022-12-19T18:49:53.476Z,99883.73
2022-12-19T18:52:21.393Z,99878.18
2022-12-19T18:54:49.360Z,99873.66
2022-12-19T18:57:17.243Z,99873.15
2022-12-19T18:59:45.258Z,99858.23
2022-12-19T19:02:27.581Z,99860.67
2022-12-19T19:04:56.163Z,99862.06
2022-12-19T19:07:24.265Z,99863.45
2022-12-19T19:09:52.721Z,99857.23
2022-12-19T19:12:42.898Z,99860.18
2022-12-19T19:15:11.289Z,99870.61
2022-12-19T19:17:40.184Z,99877.72
2022-12-19T19:20:08.848Z,99889.33
2022-12-19T19:22:36.793Z,99890.35
2022-12-19T19:25:05.541Z,99888.96
2022-12-19T19:27:33.766Z,99898.85
2022-12-19T19:30:01.691Z,99898.86
2022-12-19T19:32:29.764Z,99899.02
2022-12-19T19:34:57.755Z,99894.48
2022-12-19T19:37:27.164Z,99895.01
2022-12-19T19:39:55.044Z,99896.02
2022-12-19T19:42:22.934Z,99897.21
2022-12-19T19:44:50.837Z,99900.30
2022-12-19T19:47:25.367Z,99897.32
2022-12-19T19:49:53.658Z,99890.69
2022-12-19T19:52:21.798Z,99879.57
2022-12-19T19:54:49.666Z,99867.75
2022-12-19T19:57:17.612Z,99869.63
2022-12-19T19:59:45.474Z,99870.14
2022-12-19T20:02:13.707Z,99859.93
2022-12-19T20:04:45.719Z,99867.27
2022-12-19T20:07:13.698Z,99872.88
2022-12-19T20:09:41.529Z,99880.52
2022-12-19T20:12:09.967Z,99885.38
2022-12-19T20:14:37.933Z,99883.98
2022-12-19T20:17:05.897Z,99887.25
2022-12-19T20:19:33.833Z,99887.02
2022-12-19T20:22:02.108Z,99904.41
2022-12-19T20:24:30.290Z,99905.44
2022-12-19T20:26:59.079Z,99900.73
2022-12-19T20:29:27.393Z,99899.17
2022-12-19T20:31:56.419Z,99905.95
2022-12-19T20:34:24.413Z,99906.33
2022-12-19T20:36:52.326Z,99916.20
2022-12-19T20:39:22.285Z,99920.90
2022-12-19T20:41:51.531Z,99920.38
2022-12-19T20:44:24.056Z,99923.50
2022-12-19T20:46:53.069Z,99926.64
2022-12-19T20:49:21.544Z,99924.73
2022-12-19T20:51:49.474Z,99921.57
2022-12-19T20:54:18.282Z,99921.38
2022-12-19T20:56:46.326Z,99916.67
2022-12-19T20:59:14.306Z,99910.25
2022-12-19T21:01:42.371Z,99908.37
2022-12-19T21:04:10.556Z,99906.95
2022-12-19T21:06:39.421Z,99905.91
2022-12-19T21:09:07.616Z,99903.11
2022-12-19T21:11:36.589Z,99898.23
2022-12-19T21:14:05.914Z,99894.20
2022-12-19T21:16:34.203Z,99886.39
2022-12-19T21:19:02.138Z,99885.50
2022-12-19T21:21:30.254Z,99880.80
2022-12-19T21:24:02.020Z,99883.23
2022-12-19T21:26:30.492Z,99894.84
2022-12-19T21:28:59.322Z,99897.58
2022-12-19T21:31:29.875Z,99902.45
2022-12-19T21:33:59.955Z,99901.20
2022-12-19T21:36:29.958Z,99904.49
2022-12-19T21:39:00.150Z,99901.71
2022-12-19T21:41:28.760Z,99893.36
2022-12-19T21:43:57.888Z,99895.13
2022-12-19T21:46:28.558Z,99891.48
2022-12-19T21:48:57.318Z,99883.85
2022-12-19T21:51:30.686Z,99897.94
2022-12-19T21:54:00.933Z,99900.69
2022-12-19T21:56:39.010Z,99901.73
2022-12-19T21:59:12.106Z,99901.55
2022-12-19T22:01:41.613Z,99907.65
2022-12-19T22:04:16.218Z,99897.39
2022-12-19T22:06:44.185Z,99882.80
2022-12-19T22:09:19.383Z,99876.87
2022-12-19T22:11:47.341Z,99871.30
2022-12-19T22:14:16.798Z,99876.33
2022-12-19T22:16:44.795Z,99880.70
2022-12-19T22:19:17.689Z,99878.81
2022-12-19T22:21:46.926Z,99883.86
2022-12-19T22:24:16.922Z,99883.34
2022-12-19T22:26:45.105Z,99880.27
2022-12-19T22:29:15.860Z,99870.54
2022-12-19T22:31:44.889Z,99870.36
2022-12-19T22:34:15.981Z,99868.27
2022-12-19T22:36:44.390Z,99868.09
2022-12-19T22:39:14.489Z,99869.64
2022-12-19T22:41:42.933Z,99864.92
2022-12-19T22:44:28.782Z,99861.46
2022-12-19T22:46:56.749Z,99861.96
2022-12-19T22:49:24.697Z,99859.70
2022-12-19T22:51:52.570Z,99854.81
2022-12-19T22:54:20.445Z,99863.17
2022-12-19T22:56:51.749Z,99865.95
2022-12-19T22:59:19.941Z,99872.39
2022-12-19T23:01:48.090Z,99882.67
2022-12-19T23:04:17.549Z,99875.77
2022-12-19T23:06:45.857Z,99875.46
2022-12-19T23:09:16.333Z,99877.61
2022-12-19T23:11:47.646Z,99880.05
2022-12-19T23:14:17.173Z,99875.02
2022-12-19T23:16:45.203Z,99882.54
2022-12-19T23:19:15.447Z,99877.52
2022-12-19T23:21:43.896Z,99867.13
2022-12-19T23:24:12.292Z,99855.00
2022-12-19T23:26:40.694Z,99839.27
2022-12-19T23:29:12.125Z,99817.44
2022-12-19T23:31:43.072Z,99808.15
2022-12-19T23:34:11.067Z,99813.07
2022-12-19T23:39:27.386Z,99815.92
2022-12-19T23:41:55.292Z,99802.27
2022-12-19T23:44:23.273Z,99796.77
2022-12-19T23:46:51.234Z,99790.18
2022-12-19T23:49:19.144Z,99791.42
2022-12-19T23:51:47.026Z,99800.62
2022-12-19T23:54:14.922Z,99803.22
2022-12-19T23:56:42.836Z,99817.30
2022-12-19T23:59:10.736Z,99814.49
